sensor_id;sensor_type;location;lat;lon;timestamp;P1;durP1;ratioP1;P2;durP2;ratioP2
53299;SDS011;39187;48.476;8.310;2023-03-01T00:01:55;29.07;;;16.77;;
53299;SDS011;39187;48.476;8.310;2023-03-01T00:04:20;25.20;;;15.40;;
53299;SDS011;39187;48.476;8.310;2023-03-01T00:06:46;23.20;;;15.50;;
53299;SDS011;39187;48.476;8.310;2023-03-01T00:09:13;17.90;;;14.27;;
53299;SDS011;39187;48.476;8.310;2023-03-01T00:11:39;24.63;;;15.17;;
53299;SDS011;39187;48.476;8.310;2023-03-01T00:14:04;26.70;;;14.93;;
53299;SDS011;39187;48.476;8.310;2023-03-01T00:16:33;26.60;;;14.60;;
53299;SDS011;39187;48.476;8.310;2023-03-01T00:19:00;25.47;;;16.60;;
53299;SDS011;39187;48.476;8.310;2023-03-01T00:21:27;23.03;;;15.50;;
53299;SDS011;39187;48.476;8.310;2023-03-01T00:23:53;25.90;;;17.20;;
53299;SDS011;39187;48.476;8.310;2023-03-01T00:26:20;22.20;;;16.07;;
53299;SDS011;39187;48.476;8.310;2023-03-01T00:28:47;23.53;;;15.63;;
53299;SDS011;39187;48.476;8.310;2023-03-01T00:31:17;21.57;;;15.70;;
53299;SDS011;39187;48.476;8.310;2023-03-01T00:33:44;32.67;;;17.40;;
53299;SDS011;39187;48.476;8.310;2023-03-01T00:36:11;25.90;;;16.30;;
53299;SDS011;39187;48.476;8.310;2023-03-01T00:38:39;28.47;;;15.90;;
53299;SDS011;39187;48.476;8.310;2023-03-01T00:41:07;22.50;;;15.70;;
53299;SDS011;39187;48.476;8.310;2023-03-01T00:43:35;21.53;;;15.00;;
53299;SDS011;39187;48.476;8.310;2023-03-01T00:46:03;30.07;;;18.43;;
53299;SDS011;39187;48.476;8.310;2023-03-01T00:48:31;31.67;;;15.83;;
53299;SDS011;39187;48.476;8.310;2023-03-01T00:50:56;30.77;;;17.20;;
53299;SDS011;39187;48.476;8.310;2023-03-01T00:53:22;25.43;;;16.57;;
53299;SDS011;39187;48.476;8.310;2023-03-01T00:55:47;22.63;;;14.80;;
53299;SDS011;39187;48.476;8.310;2023-03-01T00:58:13;26.90;;;15.40;;
53299;SDS011;39187;48.476;8.310;2023-03-01T01:00:38;25.13;;;16.67;;
53299;SDS011;39187;48.476;8.310;2023-03-01T01:03:04;26.87;;;15.60;;
53299;SDS011;39187;48.476;8.310;2023-03-01T01:05:29;29.67;;;17.27;;
53299;SDS011;39187;48.476;8.310;2023-03-01T01:07:55;22.47;;;14.40;;
53299;SDS011;39187;48.476;8.310;2023-03-01T01:10:21;28.10;;;16.30;;
53299;SDS011;39187;48.476;8.310;2023-03-01T01:12:46;30.20;;;15.97;;
53299;SDS011;39187;48.476;8.310;2023-03-01T01:15:12;26.70;;;17.93;;
53299;SDS011;39187;48.476;8.310;2023-03-01T01:17:40;27.20;;;17.07;;
53299;SDS011;39187;48.476;8.310;2023-03-01T01:20:06;33.07;;;18.87;;
53299;SDS011;39187;48.476;8.310;2023-03-01T01:22:32;33.03;;;16.30;;
53299;SDS011;39187;48.476;8.310;2023-03-01T01:24:58;30.93;;;16.83;;
53299;SDS011;39187;48.476;8.310;2023-03-01T01:27:23;29.97;;;16.50;;
53299;SDS011;39187;48.476;8.310;2023-03-01T01:29:49;32.20;;;17.57;;
53299;SDS011;39187;48.476;8.310;2023-03-01T01:32:14;29.40;;;17.53;;
53299;SDS011;39187;48.476;8.310;2023-03-01T01:34:40;23.87;;;16.40;;
53299;SDS011;39187;48.476;8.310;2023-03-01T01:37:05;25.47;;;15.27;;
53299;SDS011;39187;48.476;8.310;2023-03-01T01:39:33;31.00;;;17.63;;
53299;SDS011;39187;48.476;8.310;2023-03-01T01:42:00;26.43;;;16.00;;
53299;SDS011;39187;48.476;8.310;2023-03-01T01:44:27;23.13;;;16.60;;
53299;SDS011;39187;48.476;8.310;2023-03-01T01:46:58;25.77;;;15.40;;
53299;SDS011;39187;48.476;8.310;2023-03-01T01:49:53;28.17;;;17.00;;
53299;SDS011;39187;48.476;8.310;2023-03-01T01:52:20;28.60;;;18.23;;
53299;SDS011;39187;48.476;8.310;2023-03-01T01:55:01;28.03;;;17.43;;
53299;SDS011;39187;48.476;8.310;2023-03-01T01:57:37;24.97;;;15.67;;
53299;SDS011;39187;48.476;8.310;2023-03-01T02:00:10;26.60;;;16.50;;
53299;SDS011;39187;48.476;8.310;2023-03-01T02:02:36;30.90;;;17.30;;
53299;SDS011;39187;48.476;8.310;2023-03-01T02:05:11;32.60;;;18.80;;
53299;SDS011;39187;48.476;8.310;2023-03-01T02:07:58;30.33;;;17.97;;
53299;SDS011;39187;48.476;8.310;2023-03-01T02:10:24;31.27;;;19.67;;
53299;SDS011;39187;48.476;8.310;2023-03-01T02:12:51;25.40;;;16.47;;
53299;SDS011;39187;48.476;8.310;2023-03-01T02:15:18;34.07;;;18.97;;
53299;SDS011;39187;48.476;8.310;2023-03-01T02:17:44;34.30;;;19.37;;
53299;SDS011;39187;48.476;8.310;2023-03-01T02:20:18;27.63;;;18.37;;
53299;SDS011;39187;48.476;8.310;2023-03-01T02:22:55;32.37;;;17.93;;
53299;SDS011;39187;48.476;8.310;2023-03-01T02:25:30;43.43;;;21.30;;
53299;SDS011;39187;48.476;8.310;2023-03-01T02:30:48;29.03;;;17.77;;
53299;SDS011;39187;48.476;8.310;2023-03-01T02:33:34;36.70;;;19.53;;
53299;SDS011;39187;48.476;8.310;2023-03-01T02:36:02;36.37;;;17.70;;
53299;SDS011;39187;48.476;8.310;2023-03-01T02:38:31;31.23;;;19.33;;
53299;SDS011;39187;48.476;8.310;2023-03-01T02:40:57;33.70;;;17.27;;
53299;SDS011;39187;48.476;8.310;2023-03-01T02:43:23;35.57;;;19.03;;
53299;SDS011;39187;48.476;8.310;2023-03-01T02:45:57;33.90;;;18.67;;
53299;SDS011;39187;48.476;8.310;2023-03-01T02:48:24;29.87;;;18.30;;
53299;SDS011;39187;48.476;8.310;2023-03-01T02:56:36;33.53;;;18.00;;
53299;SDS011;39187;48.476;8.310;2023-03-01T02:59:02;32.87;;;19.37;;
53299;SDS011;39187;48.476;8.310;2023-03-01T03:01:28;32.93;;;18.00;;
53299;SDS011;39187;48.476;8.310;2023-03-01T03:04:05;37.87;;;19.73;;
53299;SDS011;39187;48.476;8.310;2023-03-01T03:06:32;32.10;;;18.80;;
53299;SDS011;39187;48.476;8.310;2023-03-01T03:08:58;33.33;;;19.77;;
53299;SDS011;39187;48.476;8.310;2023-03-01T03:11:24;36.30;;;21.07;;
53299;SDS011;39187;48.476;8.310;2023-03-01T03:13:49;37.07;;;20.90;;
53299;SDS011;39187;48.476;8.310;2023-03-01T03:16:16;36.00;;;20.50;;
53299;SDS011;39187;48.476;8.310;2023-03-01T03:18:41;33.07;;;20.27;;
53299;SDS011;39187;48.476;8.310;2023-03-01T03:21:10;45.17;;;22.00;;
53299;SDS011;39187;48.476;8.310;2023-03-01T03:23:37;36.90;;;19.90;;
53299;SDS011;39187;48.476;8.310;2023-03-01T03:26:03;37.77;;;20.20;;
53299;SDS011;39187;48.476;8.310;2023-03-01T03:28:30;35.10;;;20.80;;
53299;SDS011;39187;48.476;8.310;2023-03-01T03:31:00;39.90;;;20.80;;
53299;SDS011;39187;48.476;8.310;2023-03-01T03:33:29;40.87;;;20.40;;
53299;SDS011;39187;48.476;8.310;2023-03-01T03:35:56;36.37;;;19.67;;
53299;SDS011;39187;48.476;8.310;2023-03-01T03:38:21;35.40;;;18.53;;
53299;SDS011;39187;48.476;8.310;2023-03-01T03:40:48;33.83;;;20.17;;
53299;SDS011;39187;48.476;8.310;2023-03-01T03:43:17;37.73;;;20.07;;
53299;SDS011;39187;48.476;8.310;2023-03-01T03:45:45;35.20;;;20.80;;
53299;SDS011;39187;48.476;8.310;2023-03-01T03:48:11;37.27;;;19.17;;
53299;SDS011;39187;48.476;8.310;2023-03-01T03:50:38;36.13;;;20.57;;
53299;SDS011;39187;48.476;8.310;2023-03-01T03:53:06;35.43;;;20.30;;
53299;SDS011;39187;48.476;8.310;2023-03-01T03:55:33;32.97;;;19.07;;
53299;SDS011;39187;48.476;8.310;2023-03-01T03:57:59;43.23;;;22.33;;
53299;SDS011;39187;48.476;8.310;2023-03-01T04:00:32;39.27;;;21.30;;
53299;SDS011;39187;48.476;8.310;2023-03-01T04:02:58;40.03;;;19.97;;
53299;SDS011;39187;48.476;8.310;2023-03-01T04:05:24;38.70;;;20.87;;
53299;SDS011;39187;48.476;8.310;2023-03-01T04:07:50;34.17;;;19.63;;
53299;SDS011;39187;48.476;8.310;2023-03-01T04:10:26;33.27;;;17.80;;
53299;SDS011;39187;48.476;8.310;2023-03-01T04:12:52;43.47;;;21.40;;
53299;SDS011;39187;48.476;8.310;2023-03-01T04:15:18;46.43;;;20.33;;
53299;SDS011;39187;48.476;8.310;2023-03-01T04:17:44;33.57;;;20.60;;
53299;SDS011;39187;48.476;8.310;2023-03-01T04:20:12;40.03;;;21.40;;
53299;SDS011;39187;48.476;8.310;2023-03-01T04:22:42;38.47;;;19.60;;
53299;SDS011;39187;48.476;8.310;2023-03-01T04:25:11;33.40;;;21.17;;
53299;SDS011;39187;48.476;8.310;2023-03-01T04:27:39;31.37;;;18.13;;
53299;SDS011;39187;48.476;8.310;2023-03-01T04:30:06;40.30;;;20.83;;
53299;SDS011;39187;48.476;8.310;2023-03-01T04:32:32;35.50;;;19.27;;
53299;SDS011;39187;48.476;8.310;2023-03-01T04:34:58;31.50;;;19.90;;
53299;SDS011;39187;48.476;8.310;2023-03-01T04:37:23;35.00;;;21.83;;
53299;SDS011;39187;48.476;8.310;2023-03-01T04:39:49;31.70;;;18.63;;
53299;SDS011;39187;48.476;8.310;2023-03-01T04:42:15;37.60;;;19.77;;
53299;SDS011;39187;48.476;8.310;2023-03-01T04:44:41;32.90;;;19.70;;
53299;SDS011;39187;48.476;8.310;2023-03-01T04:47:07;33.20;;;20.60;;
53299;SDS011;39187;48.476;8.310;2023-03-01T04:49:33;34.93;;;21.30;;
53299;SDS011;39187;48.476;8.310;2023-03-01T04:51:58;36.87;;;20.57;;
53299;SDS011;39187;48.476;8.310;2023-03-01T04:54:27;34.77;;;22.00;;
53299;SDS011;39187;48.476;8.310;2023-03-01T04:56:56;35.03;;;20.93;;
53299;SDS011;39187;48.476;8.310;2023-03-01T04:59:21;34.43;;;19.83;;
53299;SDS011;39187;48.476;8.310;2023-03-01T05:01:51;40.63;;;22.30;;
53299;SDS011;39187;48.476;8.310;2023-03-01T05:04:17;35.43;;;20.73;;
53299;SDS011;39187;48.476;8.310;2023-03-01T05:06:43;41.40;;;24.10;;
53299;SDS011;39187;48.476;8.310;2023-03-01T05:09:09;41.37;;;22.37;;
53299;SDS011;39187;48.476;8.310;2023-03-01T05:11:36;32.17;;;19.83;;
53299;SDS011;39187;48.476;8.310;2023-03-01T05:14:02;49.50;;;20.27;;
53299;SDS011;39187;48.476;8.310;2023-03-01T05:16:29;42.73;;;22.60;;
53299;SDS011;39187;48.476;8.310;2023-03-01T05:18:55;46.30;;;23.30;;
53299;SDS011;39187;48.476;8.310;2023-03-01T05:21:21;40.57;;;22.03;;
53299;SDS011;39187;48.476;8.310;2023-03-01T05:23:47;40.60;;;22.07;;
53299;SDS011;39187;48.476;8.310;2023-03-01T05:26:13;45.90;;;24.30;;
53299;SDS011;39187;48.476;8.310;2023-03-01T05:28:40;36.50;;;21.37;;
53299;SDS011;39187;48.476;8.310;2023-03-01T05:31:05;30.60;;;16.30;;
53299;SDS011;39187;48.476;8.310;2023-03-01T05:33:37;43.03;;;24.30;;
53299;SDS011;39187;48.476;8.310;2023-03-01T05:36:04;41.67;;;23.30;;
53299;SDS011;39187;48.476;8.310;2023-03-01T05:38:34;39.97;;;23.00;;
53299;SDS011;39187;48.476;8.310;2023-03-01T05:41:00;39.43;;;21.30;;
53299;SDS011;39187;48.476;8.310;2023-03-01T05:43:25;37.87;;;22.00;;
53299;SDS011;39187;48.476;8.310;2023-03-01T05:45:51;41.03;;;22.57;;
53299;SDS011;39187;48.476;8.310;2023-03-01T05:48:16;36.60;;;21.97;;
53299;SDS011;39187;48.476;8.310;2023-03-01T05:50:44;40.33;;;22.00;;
53299;SDS011;39187;48.476;8.310;2023-03-01T05:53:16;39.13;;;21.20;;
53299;SDS011;39187;48.476;8.310;2023-03-01T05:55:44;38.73;;;21.00;;
53299;SDS011;39187;48.476;8.310;2023-03-01T05:58:13;36.90;;;20.60;;
53299;SDS011;39187;48.476;8.310;2023-03-01T06:00:41;31.53;;;19.23;;
53299;SDS011;39187;48.476;8.310;2023-03-01T06:03:09;38.73;;;16.83;;
53299;SDS011;39187;48.476;8.310;2023-03-01T06:05:36;38.03;;;20.90;;
53299;SDS011;39187;48.476;8.310;2023-03-01T06:08:02;43.63;;;21.67;;
53299;SDS011;39187;48.476;8.310;2023-03-01T06:10:28;34.73;;;16.10;;
53299;SDS011;39187;48.476;8.310;2023-03-01T06:12:54;36.90;;;20.30;;
53299;SDS011;39187;48.476;8.310;2023-03-01T06:15:20;30.73;;;16.40;;
53299;SDS011;39187;48.476;8.310;2023-03-01T06:17:46;46.17;;;23.47;;
53299;SDS011;39187;48.476;8.310;2023-03-01T06:20:13;36.73;;;21.20;;
53299;SDS011;39187;48.476;8.310;2023-03-01T06:22:46;37.07;;;20.80;;
53299;SDS011;39187;48.476;8.310;2023-03-01T06:25:13;40.13;;;22.10;;
53299;SDS011;39187;48.476;8.310;2023-03-01T06:27:40;43.43;;;21.73;;
53299;SDS011;39187;48.476;8.310;2023-03-01T06:30:07;38.20;;;21.17;;
53299;SDS011;39187;48.476;8.310;2023-03-01T06:32:35;38.40;;;19.90;;
53299;SDS011;39187;48.476;8.310;2023-03-01T06:35:01;30.77;;;18.13;;
53299;SDS011;39187;48.476;8.310;2023-03-01T06:37:26;43.33;;;22.10;;
53299;SDS011;39187;48.476;8.310;2023-03-01T06:39:52;44.70;;;22.50;;
53299;SDS011;39187;48.476;8.310;2023-03-01T06:42:17;37.10;;;20.90;;
53299;SDS011;39187;48.476;8.310;2023-03-01T06:44:43;38.37;;;21.00;;
53299;SDS011;39187;48.476;8.310;2023-03-01T06:47:09;37.77;;;21.73;;
53299;SDS011;39187;48.476;8.310;2023-03-01T06:49:35;35.90;;;20.33;;
53299;SDS011;39187;48.476;8.310;2023-03-01T06:52:00;39.57;;;19.03;;
53299;SDS011;39187;48.476;8.310;2023-03-01T06:54:26;29.47;;;16.27;;
53299;SDS011;39187;48.476;8.310;2023-03-01T06:56:51;35.10;;;19.77;;
53299;SDS011;39187;48.476;8.310;2023-03-01T06:59:17;31.40;;;16.60;;
53299;SDS011;39187;48.476;8.310;2023-03-01T07:01:43;31.20;;;19.57;;
53299;SDS011;39187;48.476;8.310;2023-03-01T07:04:09;38.40;;;22.47;;
53299;SDS011;39187;48.476;8.310;2023-03-01T07:06:35;26.97;;;16.43;;
53299;SDS011;39187;48.476;8.310;2023-03-01T07:09:01;32.97;;;18.97;;
53299;SDS011;39187;48.476;8.310;2023-03-01T07:11:26;28.67;;;16.93;;
53299;SDS011;39187;48.476;8.310;2023-03-01T07:13:52;39.83;;;19.30;;
53299;SDS011;39187;48.476;8.310;2023-03-01T07:16:17;34.57;;;18.53;;
53299;SDS011;39187;48.476;8.310;2023-03-01T07:18:45;32.57;;;18.83;;
53299;SDS011;39187;48.476;8.310;2023-03-01T07:21:11;34.90;;;18.47;;
53299;SDS011;39187;48.476;8.310;2023-03-01T07:23:38;27.70;;;16.30;;
53299;SDS011;39187;48.476;8.310;2023-03-01T07:26:04;26.87;;;17.23;;
53299;SDS011;39187;48.476;8.310;2023-03-01T07:28:30;14.07;;;11.50;;
53299;SDS011;39187;48.476;8.310;2023-03-01T07:31:00;21.20;;;12.40;;
53299;SDS011;39187;48.476;8.310;2023-03-01T07:33:26;19.97;;;11.23;;
53299;SDS011;39187;48.476;8.310;2023-03-01T07:35:55;29.13;;;17.67;;
53299;SDS011;39187;48.476;8.310;2023-03-01T07:38:23;30.87;;;18.10;;
53299;SDS011;39187;48.476;8.310;2023-03-01T07:40:48;34.83;;;18.10;;
53299;SDS011;39187;48.476;8.310;2023-03-01T07:43:14;35.80;;;20.07;;
53299;SDS011;39187;48.476;8.310;2023-03-01T07:45:39;32.30;;;19.73;;
53299;SDS011;39187;48.476;8.310;2023-03-01T07:48:05;36.20;;;20.20;;
53299;SDS011;39187;48.476;8.310;2023-03-01T07:50:30;31.87;;;20.00;;
53299;SDS011;39187;48.476;8.310;2023-03-01T07:52:55;28.83;;;18.83;;
53299;SDS011;39187;48.476;8.310;2023-03-01T07:55:21;31.13;;;18.63;;
53299;SDS011;39187;48.476;8.310;2023-03-01T07:57:46;25.60;;;17.17;;
53299;SDS011;39187;48.476;8.310;2023-03-01T08:00:12;31.97;;;20.00;;
53299;SDS011;39187;48.476;8.310;2023-03-01T08:02:38;35.40;;;17.87;;
53299;SDS011;39187;48.476;8.310;2023-03-01T08:05:05;28.33;;;18.40;;
53299;SDS011;39187;48.476;8.310;2023-03-01T08:07:31;34.43;;;20.97;;
53299;SDS011;39187;48.476;8.310;2023-03-01T08:09:56;39.93;;;20.43;;
53299;SDS011;39187;48.476;8.310;2023-03-01T08:12:22;33.87;;;21.03;;
53299;SDS011;39187;48.476;8.310;2023-03-01T08:14:47;32.20;;;19.53;;
53299;SDS011;39187;48.476;8.310;2023-03-01T08:17:15;29.33;;;18.90;;
53299;SDS011;39187;48.476;8.310;2023-03-01T08:19:42;31.87;;;18.13;;
53299;SDS011;39187;48.476;8.310;2023-03-01T08:22:07;31.30;;;19.10;;
53299;SDS011;39187;48.476;8.310;2023-03-01T08:24:33;28.37;;;19.70;;
53299;SDS011;39187;48.476;8.310;2023-03-01T08:26:58;33.17;;;18.73;;
53299;SDS011;39187;48.476;8.310;2023-03-01T08:29:24;28.90;;;18.43;;
53299;SDS011;39187;48.476;8.310;2023-03-01T08:31:50;25.73;;;18.33;;
53299;SDS011;39187;48.476;8.310;2023-03-01T08:34:16;29.83;;;17.60;;
53299;SDS011;39187;48.476;8.310;2023-03-01T08:36:43;32.13;;;20.10;;
53299;SDS011;39187;48.476;8.310;2023-03-01T08:39:11;26.17;;;18.50;;
53299;SDS011;39187;48.476;8.310;2023-03-01T08:41:38;29.00;;;19.37;;
53299;SDS011;39187;48.476;8.310;2023-03-01T08:44:04;30.80;;;19.90;;
53299;SDS011;39187;48.476;8.310;2023-03-01T08:46:32;31.70;;;19.80;;
53299;SDS011;39187;48.476;8.310;2023-03-01T08:48:59;31.83;;;20.97;;
53299;SDS011;39187;48.476;8.310;2023-03-01T08:51:25;30.30;;;19.67;;
53299;SDS011;39187;48.476;8.310;2023-03-01T08:53:51;31.47;;;17.77;;
53299;SDS011;39187;48.476;8.310;2023-03-01T08:56:17;29.00;;;19.93;;
53299;SDS011;39187;48.476;8.310;2023-03-01T08:58:44;32.70;;;19.73;;
53299;SDS011;39187;48.476;8.310;2023-03-01T09:01:15;24.57;;;18.27;;
53299;SDS011;39187;48.476;8.310;2023-03-01T09:03:42;28.30;;;19.20;;
53299;SDS011;39187;48.476;8.310;2023-03-01T09:06:08;29.97;;;19.43;;
53299;SDS011;39187;48.476;8.310;2023-03-01T09:08:35;23.70;;;18.80;;
53299;SDS011;39187;48.476;8.310;2023-03-01T09:11:05;31.80;;;20.83;;
53299;SDS011;39187;48.476;8.310;2023-03-01T09:13:32;27.90;;;17.60;;
53299;SDS011;39187;48.476;8.310;2023-03-01T09:16:00;24.33;;;17.17;;
53299;SDS011;39187;48.476;8.310;2023-03-01T09:18:26;31.03;;;20.27;;
53299;SDS011;39187;48.476;8.310;2023-03-01T09:20:52;28.40;;;17.80;;
53299;SDS011;39187;48.476;8.310;2023-03-01T09:23:20;30.67;;;19.90;;
53299;SDS011;39187;48.476;8.310;2023-03-01T09:25:46;31.80;;;20.00;;
53299;SDS011;39187;48.476;8.310;2023-03-01T09:28:12;35.53;;;20.27;;
53299;SDS011;39187;48.476;8.310;2023-03-01T09:30:37;27.83;;;19.27;;
53299;SDS011;39187;48.476;8.310;2023-03-01T09:33:03;24.83;;;16.90;;
53299;SDS011;39187;48.476;8.310;2023-03-01T09:35:28;25.53;;;18.80;;
53299;SDS011;39187;48.476;8.310;2023-03-01T09:37:53;30.70;;;20.17;;
53299;SDS011;39187;48.476;8.310;2023-03-01T09:40:20;24.77;;;20.00;;
53299;SDS011;39187;48.476;8.310;2023-03-01T09:45:50;24.90;;;18.80;;
53299;SDS011;39187;48.476;8.310;2023-03-01T09:48:12;32.93;;;19.10;;
53299;SDS011;39187;48.476;8.310;2023-03-01T09:50:48;30.93;;;18.23;;
53299;SDS011;39187;48.476;8.310;2023-03-01T09:53:18;36.83;;;20.87;;
53299;SDS011;39187;48.476;8.310;2023-03-01T09:55:59;27.50;;;20.33;;
53299;SDS011;39187;48.476;8.310;2023-03-01T09:58:51;40.40;;;22.23;;
53299;SDS011;39187;48.476;8.310;2023-03-01T10:09:47;34.70;;;19.63;;
53299;SDS011;39187;48.476;8.310;2023-03-01T10:12:23;32.03;;;20.63;;
53299;SDS011;39187;48.476;8.310;2023-03-01T10:20:14;31.10;;;20.87;;
53299;SDS011;39187;48.476;8.310;2023-03-01T10:22:42;32.20;;;19.90;;
53299;SDS011;39187;48.476;8.310;2023-03-01T10:25:12;27.53;;;19.30;;
53299;SDS011;39187;48.476;8.310;2023-03-01T10:30:21;27.33;;;20.03;;
53299;SDS011;39187;48.476;8.310;2023-03-01T10:32:54;30.33;;;21.60;;
53299;SDS011;39187;48.476;8.310;2023-03-01T10:35:23;29.20;;;21.00;;
53299;SDS011;39187;48.476;8.310;2023-03-01T10:37:58;30.77;;;20.30;;
53299;SDS011;39187;48.476;8.310;2023-03-01T10:40:29;30.97;;;22.10;;
53299;SDS011;39187;48.476;8.310;2023-03-01T10:42:57;35.93;;;23.20;;
53299;SDS011;39187;48.476;8.310;2023-03-01T10:48:17;53.63;;;26.03;;
53299;SDS011;39187;48.476;8.310;2023-03-01T10:53:27;61.43;;;27.30;;
53299;SDS011;39187;48.476;8.310;2023-03-01T10:55:58;36.13;;;22.03;;
53299;SDS011;39187;48.476;8.310;2023-03-01T10:58:30;32.47;;;19.03;;
53299;SDS011;39187;48.476;8.310;2023-03-01T11:01:06;39.80;;;21.87;;
53299;SDS011;39187;48.476;8.310;2023-03-01T11:06:30;29.10;;;19.13;;
53299;SDS011;39187;48.476;8.310;2023-03-01T11:08:56;26.90;;;20.10;;
53299;SDS011;39187;48.476;8.310;2023-03-01T11:11:32;31.70;;;20.70;;
53299;SDS011;39187;48.476;8.310;2023-03-01T11:21:57;36.40;;;22.00;;
53299;SDS011;39187;48.476;8.310;2023-03-01T11:24:40;28.10;;;20.30;;
53299;SDS011;39187;48.476;8.310;2023-03-01T11:27:31;28.20;;;19.87;;
53299;SDS011;39187;48.476;8.310;2023-03-01T11:30:09;34.83;;;19.90;;
53299;SDS011;39187;48.476;8.310;2023-03-01T11:32:53;32.63;;;20.10;;
53299;SDS011;39187;48.476;8.310;2023-03-01T11:35:22;34.37;;;20.17;;
53299;SDS011;39187;48.476;8.310;2023-03-01T11:40:27;29.53;;;20.17;;
53299;SDS011;39187;48.476;8.310;2023-03-01T11:43:06;30.37;;;21.27;;
53299;SDS011;39187;48.476;8.310;2023-03-01T11:48:28;33.47;;;21.30;;
53299;SDS011;39187;48.476;8.310;2023-03-01T11:57:07;33.60;;;19.43;;
53299;SDS011;39187;48.476;8.310;2023-03-01T12:10:55;35.03;;;19.53;;
53299;SDS011;39187;48.476;8.310;2023-03-01T12:13:45;39.73;;;19.93;;
53299;SDS011;39187;48.476;8.310;2023-03-01T12:27:24;29.43;;;19.67;;
53299;SDS011;39187;48.476;8.310;2023-03-01T12:35:23;29.87;;;19.73;;
53299;SDS011;39187;48.476;8.310;2023-03-01T12:41:32;33.30;;;20.07;;
53299;SDS011;39187;48.476;8.310;2023-03-01T12:44:30;32.93;;;19.73;;
53299;SDS011;39187;48.476;8.310;2023-03-01T12:50:16;24.07;;;19.00;;
53299;SDS011;39187;48.476;8.310;2023-03-01T12:55:51;30.27;;;19.90;;
53299;SDS011;39187;48.476;8.310;2023-03-01T12:58:26;29.40;;;19.43;;
53299;SDS011;39187;48.476;8.310;2023-03-01T13:06:15;33.43;;;18.27;;
53299;SDS011;39187;48.476;8.310;2023-03-01T13:08:49;33.47;;;18.80;;
53299;SDS011;39187;48.476;8.310;2023-03-01T13:11:27;35.67;;;19.60;;
53299;SDS011;39187;48.476;8.310;2023-03-01T13:14:10;32.40;;;20.00;;
53299;SDS011;39187;48.476;8.310;2023-03-01T13:16:51;29.57;;;20.03;;
53299;SDS011;39187;48.476;8.310;2023-03-01T13:19:18;29.87;;;20.17;;
53299;SDS011;39187;48.476;8.310;2023-03-01T13:21:47;31.00;;;18.73;;
53299;SDS011;39187;48.476;8.310;2023-03-01T13:24:24;28.30;;;17.80;;
53299;SDS011;39187;48.476;8.310;2023-03-01T13:29:32;21.67;;;16.70;;
53299;SDS011;39187;48.476;8.310;2023-03-01T13:32:28;32.37;;;20.50;;
53299;SDS011;39187;48.476;8.310;2023-03-01T13:34:55;33.80;;;20.57;;
53299;SDS011;39187;48.476;8.310;2023-03-01T13:37:35;29.43;;;19.23;;
53299;SDS011;39187;48.476;8.310;2023-03-01T13:42:56;28.73;;;19.80;;
53299;SDS011;39187;48.476;8.310;2023-03-01T13:45:24;26.83;;;20.33;;
53299;SDS011;39187;48.476;8.310;2023-03-01T13:48:01;28.07;;;19.70;;
53299;SDS011;39187;48.476;8.310;2023-03-01T13:50:33;34.40;;;20.30;;
53299;SDS011;39187;48.476;8.310;2023-03-01T13:53:10;26.27;;;19.97;;
53299;SDS011;39187;48.476;8.310;2023-03-01T13:55:47;30.27;;;19.00;;
53299;SDS011;39187;48.476;8.310;2023-03-01T13:58:19;28.10;;;20.67;;
53299;SDS011;39187;48.476;8.310;2023-03-01T14:03:28;28.60;;;20.37;;
53299;SDS011;39187;48.476;8.310;2023-03-01T14:06:00;28.57;;;17.90;;
53299;SDS011;39187;48.476;8.310;2023-03-01T14:08:33;27.47;;;18.70;;
53299;SDS011;39187;48.476;8.310;2023-03-01T14:13:54;29.20;;;19.27;;
53299;SDS011;39187;48.476;8.310;2023-03-01T14:19:37;26.70;;;19.53;;
53299;SDS011;39187;48.476;8.310;2023-03-01T14:24:56;32.87;;;20.80;;
53299;SDS011;39187;48.476;8.310;2023-03-01T14:27:37;31.60;;;21.83;;
53299;SDS011;39187;48.476;8.310;2023-03-01T14:30:42;29.90;;;20.67;;
53299;SDS011;39187;48.476;8.310;2023-03-01T14:33:05;27.10;;;19.07;;
53299;SDS011;39187;48.476;8.310;2023-03-01T14:35:42;27.97;;;18.63;;
53299;SDS011;39187;48.476;8.310;2023-03-01T14:38:27;31.03;;;20.70;;
53299;SDS011;39187;48.476;8.310;2023-03-01T14:40:57;27.30;;;17.90;;
53299;SDS011;39187;48.476;8.310;2023-03-01T14:43:26;25.80;;;19.00;;
53299;SDS011;39187;48.476;8.310;2023-03-01T14:45:54;35.43;;;21.07;;
53299;SDS011;39187;48.476;8.310;2023-03-01T14:48:20;35.10;;;20.83;;
53299;SDS011;39187;48.476;8.310;2023-03-01T14:50:46;34.63;;;20.23;;
53299;SDS011;39187;48.476;8.310;2023-03-01T14:53:31;28.30;;;19.27;;
53299;SDS011;39187;48.476;8.310;2023-03-01T14:55:59;31.63;;;20.80;;
53299;SDS011;39187;48.476;8.310;2023-03-01T14:58:29;27.63;;;19.40;;
53299;SDS011;39187;48.476;8.310;2023-03-01T15:01:02;34.70;;;20.17;;
53299;SDS011;39187;48.476;8.310;2023-03-01T15:06:05;30.10;;;18.70;;
53299;SDS011;39187;48.476;8.310;2023-03-01T15:08:33;27.73;;;18.83;;
53299;SDS011;39187;48.476;8.310;2023-03-01T15:11:02;36.33;;;19.97;;
53299;SDS011;39187;48.476;8.310;2023-03-01T15:13:43;34.47;;;20.80;;
53299;SDS011;39187;48.476;8.310;2023-03-01T15:18:46;26.73;;;19.10;;
53299;SDS011;39187;48.476;8.310;2023-03-01T15:21:22;29.97;;;19.30;;
53299;SDS011;39187;48.476;8.310;2023-03-01T15:23:57;32.40;;;20.57;;
53299;SDS011;39187;48.476;8.310;2023-03-01T15:26:29;31.80;;;20.40;;
53299;SDS011;39187;48.476;8.310;2023-03-01T15:28:58;29.23;;;20.30;;
53299;SDS011;39187;48.476;8.310;2023-03-01T15:31:26;37.73;;;22.20;;
53299;SDS011;39187;48.476;8.310;2023-03-01T15:36:52;30.80;;;20.33;;
53299;SDS011;39187;48.476;8.310;2023-03-01T15:42:05;48.37;;;19.20;;
53299;SDS011;39187;48.476;8.310;2023-03-01T15:44:37;36.93;;;18.90;;
53299;SDS011;39187;48.476;8.310;2023-03-01T15:47:06;37.23;;;20.40;;
53299;SDS011;39187;48.476;8.310;2023-03-01T15:49:47;37.40;;;20.87;;
53299;SDS011;39187;48.476;8.310;2023-03-01T15:52:39;30.40;;;18.80;;
53299;SDS011;39187;48.476;8.310;2023-03-01T15:55:06;40.03;;;19.17;;
53299;SDS011;39187;48.476;8.310;2023-03-01T15:57:41;33.73;;;21.67;;
53299;SDS011;39187;48.476;8.310;2023-03-01T16:00:08;33.07;;;20.93;;
53299;SDS011;39187;48.476;8.310;2023-03-01T16:02:41;35.13;;;20.17;;
53299;SDS011;39187;48.476;8.310;2023-03-01T16:05:19;36.17;;;21.97;;
53299;SDS011;39187;48.476;8.310;2023-03-01T16:07:48;34.97;;;22.60;;
53299;SDS011;39187;48.476;8.310;2023-03-01T16:10:14;29.57;;;20.50;;
53299;SDS011;39187;48.476;8.310;2023-03-01T16:12:40;34.30;;;21.40;;
53299;SDS011;39187;48.476;8.310;2023-03-01T16:15:13;33.03;;;22.93;;
53299;SDS011;39187;48.476;8.310;2023-03-01T16:17:50;33.57;;;21.03;;
53299;SDS011;39187;48.476;8.310;2023-03-01T16:20:17;30.50;;;21.43;;
53299;SDS011;39187;48.476;8.310;2023-03-01T16:22:43;28.27;;;19.67;;
53299;SDS011;39187;48.476;8.310;2023-03-01T16:25:14;46.73;;;22.77;;
53299;SDS011;39187;48.476;8.310;2023-03-01T16:27:42;40.00;;;22.47;;
53299;SDS011;39187;48.476;8.310;2023-03-01T16:30:10;34.43;;;20.67;;
53299;SDS011;39187;48.476;8.310;2023-03-01T16:32:37;35.60;;;21.73;;
53299;SDS011;39187;48.476;8.310;2023-03-01T16:35:04;40.17;;;23.40;;
53299;SDS011;39187;48.476;8.310;2023-03-01T16:37:31;36.57;;;22.17;;
53299;SDS011;39187;48.476;8.310;2023-03-01T16:39:58;33.23;;;22.20;;